Time;durP1;ratioP1;P1;durP2;ratioP2;P2;SDS_P1;SDS_P2;PMS_P1;PMS_P2;Temp;Humidity;BMP_temperature;BMP_pressure;BME280_temperature;BME280_humidity;BME280_pressure;Samples;Min_cycle;Max_cycle;Signal;HPM_P1;HPM_P2
2021/08/12 00:00:12;;;;;;;;;;;18.00;99.90;;;;;;4951047;28;19915;-83
2021/08/12 00:02:37;;;;;;;;;;;18.00;99.90;;;;;;4951288;28;19910;-83
2021/08/12 00:05:04;;;;;;;;;;;17.90;99.90;;;;;;4952812;28;19910;-82
2021/08/12 00:07:30;;;;;;;;;;;17.90;99.90;;;;;;4953794;28;20103;-82
2021/08/12 00:09:56;;;;;;;;;;;17.90;99.90;;;;;;4954171;28;19917;-83
2021/08/12 00:12:22;;;;;;;;;;;17.90;99.90;;;;;;4954408;28;19914;-82
2021/08/12 00:14:47;;;;;;;;;;;17.90;99.90;;;;;;4954327;28;19914;-83
2021/08/12 00:17:13;;;;;;;;;;;17.90;99.90;;;;;;4954410;28;19915;-83
2021/08/12 00:19:38;;;;;;;;;;;17.80;99.90;;;;;;4953565;28;19919;-83
2021/08/12 00:22:04;;;;;;;;;;;17.80;99.90;;;;;;4955622;28;19911;-83
2021/08/12 00:24:30;;;;;;;;;;;17.80;99.90;;;;;;4955486;28;19911;-82
2021/08/12 00:26:57;;;;;;;;;;;17.80;99.90;;;;;;4955157;28;19910;-82
2021/08/12 00:29:22;;;;;;;;;;;17.70;99.90;;;;;;4954882;28;19910;-83
2021/08/12 00:31:49;;;;;;;;;;;17.80;99.90;;;;;;4955463;28;20386;-82
2021/08/12 00:34:15;;;;;;;;;;;17.70;99.90;;;;;;4955491;28;19915;-82
2021/08/12 00:36:40;;;;;;;;;;;17.70;99.90;;;;;;4954117;28;19921;-83
2021/08/12 00:39:06;;;;;;;;;;;17.70;99.90;;;;;;4954789;28;19910;-82
2021/08/12 00:41:35;;;;;;;;;;;17.70;99.90;;;;;;4954063;28;20362;-82
2021/08/12 00:44:01;;;;;;;;;;;17.70;99.90;;;;;;4955649;28;19915;-82
2021/08/12 00:46:26;;;;;;;;;;;17.60;99.90;;;;;;4954321;28;19910;-82
2021/08/12 00:48:52;;;;;;;;;;;17.60;99.90;;;;;;4955299;28;19933;-83
2021/08/12 00:51:17;;;;;;;;;;;17.60;99.90;;;;;;4954149;28;20260;-83
2021/08/12 00:53:43;;;;;;;;;;;17.60;99.90;;;;;;4955340;28;19911;-83
2021/08/12 00:56:08;;;;;;;;;;;17.70;99.90;;;;;;4955370;28;19984;-83
2021/08/12 00:58:34;;;;;;;;;;;17.60;99.90;;;;;;4954379;28;19916;-83
2021/08/12 01:01:00;;;;;;;;;;;17.60;99.90;;;;;;4953474;29;19911;-83
2021/08/12 01:03:25;;;;;;;;;;;17.60;99.90;;;;;;4955191;28;19915;-83
2021/08/12 01:05:57;;;;;;;;;;;17.60;99.90;;;;;;4954246;28;19914;-83
2021/08/12 01:08:33;;;;;;;;;;;17.60;99.90;;;;;;4953959;28;19911;-83
2021/08/12 01:11:21;;;;;;;;;;;17.60;99.90;;;;;;4954686;28;19918;-82
2021/08/12 01:13:56;;;;;;;;;;;17.60;99.90;;;;;;4955066;28;19917;-83
2021/08/12 01:16:25;;;;;;;;;;;17.60;99.90;;;;;;4953676;28;20027;-82
2021/08/12 01:19:05;;;;;;;;;;;17.60;99.90;;;;;;4954170;28;19918;-83
2021/08/12 01:21:31;;;;;;;;;;;17.60;99.90;;;;;;4954654;28;19910;-83
2021/08/12 01:24:02;;;;;;;;;;;17.60;99.90;;;;;;4955030;28;19910;-83
2021/08/12 01:26:29;;;;;;;;;;;17.60;99.90;;;;;;4955031;28;20477;-83
2021/08/12 01:28:55;;;;;;;;;;;17.60;99.90;;;;;;4952960;29;20001;-83
2021/08/12 01:31:26;;;;;;;;;;;17.50;99.90;;;;;;4953349;29;19917;-83
2021/08/12 01:33:55;;;;;;;;;;;17.50;99.90;;;;;;4953349;28;19921;-82
2021/08/12 01:36:21;;;;;;;;;;;17.50;99.90;;;;;;4954892;28;19926;-83
2021/08/12 01:38:47;;;;;;;;;;;17.50;99.90;;;;;;4953064;29;20053;-83
2021/08/12 01:41:13;;;;;;;;;;;17.50;99.90;;;;;;4954494;28;19919;-83
2021/08/12 01:43:39;;;;;;;;;;;17.40;99.90;;;;;;4954371;28;19917;-83
2021/08/12 01:46:05;;;;;;;;;;;17.40;99.90;;;;;;4953225;28;19950;-83
2021/08/12 01:48:32;;;;;;;;;;;17.40;99.90;;;;;;4952976;28;19911;-83
2021/08/12 01:50:57;;;;;;;;;;;17.40;99.90;;;;;;4952477;28;19911;-83
2021/08/12 01:53:24;;;;;;;;;;;17.40;99.90;;;;;;4953210;29;20009;-83
2021/08/12 01:55:50;;;;;;;;;;;17.40;99.90;;;;;;4954604;28;19914;-83
2021/08/12 01:58:17;;;;;;;;;;;17.30;99.90;;;;;;4954431;28;19911;-83
2021/08/12 02:00:43;;;;;;;;;;;17.30;99.90;;;;;;4953775;28;19921;-83
2021/08/12 02:03:09;;;;;;;;;;;17.30;99.90;;;;;;4954217;28;19910;-83
2021/08/12 02:05:36;;;;;;;;;;;17.30;99.90;;;;;;4952673;29;19998;-82
2021/08/12 02:08:02;;;;;;;;;;;17.30;99.90;;;;;;4954276;28;19915;-83
2021/08/12 02:10:28;;;;;;;;;;;17.30;99.90;;;;;;4952471;28;19911;-83
2021/08/12 02:12:53;;;;;;;;;;;17.30;99.90;;;;;;4952930;28;20397;-83
2021/08/12 02:15:19;;;;;;;;;;;17.30;99.90;;;;;;4952955;28;19942;-82
2021/08/12 02:17:44;;;;;;;;;;;17.30;99.90;;;;;;4953182;28;20282;-83
2021/08/12 02:20:11;;;;;;;;;;;17.30;99.90;;;;;;4951954;28;20367;-83
2021/08/12 02:22:48;;;;;;;;;;;17.20;99.90;;;;;;4953033;28;19910;-83
2021/08/12 02:25:18;;;;;;;;;;;17.20;99.90;;;;;;4952736;28;20325;-83
2021/08/12 02:27:45;;;;;;;;;;;17.20;99.90;;;;;;4954165;28;19917;-83
2021/08/12 02:30:11;;;;;;;;;;;17.20;99.90;;;;;;4952999;28;19960;-83
2021/08/12 02:32:38;;;;;;;;;;;17.20;99.90;;;;;;4952527;28;19910;-83
2021/08/12 02:35:04;;;;;;;;;;;17.20;99.90;;;;;;4952507;28;19973;-83
2021/08/12 02:37:31;;;;;;;;;;;17.20;99.90;;;;;;4953055;28;19910;-83
2021/08/12 02:39:57;;;;;;;;;;;17.20;99.90;;;;;;4950512;28;19919;-82
2021/08/12 02:42:23;;;;;;;;;;;17.20;99.90;;;;;;4953930;28;19917;-83
2021/08/12 02:44:51;;;;;;;;;;;17.20;99.90;;;;;;4954015;28;20438;-83
2021/08/12 02:47:18;;;;;;;;;;;17.20;99.90;;;;;;4953897;28;19910;-83
2021/08/12 02:49:44;;;;;;;;;;;17.20;99.90;;;;;;4951600;28;19910;-83
2021/08/12 02:52:12;;;;;;;;;;;17.20;99.90;;;;;;4952196;28;19911;-83
2021/08/12 02:54:39;;;;;;;;;;;17.20;99.90;;;;;;4952306;29;19914;-82
2021/08/12 02:57:05;;;;;;;;;;;17.20;99.90;;;;;;4952110;29;19926;-83
2021/08/12 02:59:30;;;;;;;;;;;17.20;99.90;;;;;;4953268;28;19910;-82
2021/08/12 03:01:57;;;;;;;;;;;17.20;99.90;;;;;;4952507;28;19910;-83
2021/08/12 03:04:22;;;;;;;;;;;17.20;99.90;;;;;;4954036;28;20440;-82
2021/08/12 03:06:52;;;;;;;;;;;17.10;99.90;;;;;;4953996;28;19911;-83
2021/08/12 03:09:19;;;;;;;;;;;17.10;99.90;;;;;;4953089;28;19922;-83
2021/08/12 03:11:45;;;;;;;;;;;17.10;99.90;;;;;;4953747;28;19960;-82
2021/08/12 03:14:11;;;;;;;;;;;17.10;99.90;;;;;;4953475;28;19911;-82
2021/08/12 03:16:37;;;;;;;;;;;17.10;99.90;;;;;;4952250;28;19917;-82
2021/08/12 03:19:02;;;;;;;;;;;17.10;99.90;;;;;;4951175;28;19918;-83
2021/08/12 03:21:28;;;;;;;;;;;17.10;99.90;;;;;;4951851;28;19922;-83
2021/08/12 03:23:53;;;;;;;;;;;17.00;99.90;;;;;;4953288;28;19914;-83
2021/08/12 03:26:19;;;;;;;;;;;17.10;99.90;;;;;;4953477;28;19933;-82
2021/08/12 03:28:44;;;;;;;;;;;17.00;99.90;;;;;;4952286;28;19910;-83
2021/08/12 03:31:10;;;;;;;;;;;17.00;99.90;;;;;;4953035;28;20000;-82
2021/08/12 03:33:37;;;;;;;;;;;17.00;99.90;;;;;;4952090;28;20485;-82
2021/08/12 03:36:03;;;;;;;;;;;16.90;99.90;;;;;;4951909;28;19969;-83
2021/08/12 03:38:29;;;;;;;;;;;17.00;99.90;;;;;;4953068;28;20009;-83
2021/08/12 03:40:54;;;;;;;;;;;17.00;99.90;;;;;;4953392;28;20405;-82
2021/08/12 03:43:20;;;;;;;;;;;17.00;99.90;;;;;;4955012;28;20291;-83
2021/08/12 03:45:45;;;;;;;;;;;16.90;99.90;;;;;;4955179;28;20007;-83
2021/08/12 03:48:11;;;;;;;;;;;16.90;99.90;;;;;;4956553;28;19911;-83
2021/08/12 03:50:36;;;;;;;;;;;16.90;99.90;;;;;;4956055;28;19911;-82
2021/08/12 03:53:02;;;;;;;;;;;16.90;99.90;;;;;;4955185;28;19988;-82
2021/08/12 03:55:28;;;;;;;;;;;16.90;99.90;;;;;;4955619;28;20397;-82
2021/08/12 03:57:53;;;;;;;;;;;16.90;99.90;;;;;;4955384;28;20407;-82
2021/08/12 04:00:19;;;;;;;;;;;16.90;99.90;;;;;;4955626;28;20367;-82
2021/08/12 04:02:44;;;;;;;;;;;16.80;99.90;;;;;;4956642;28;19915;-83
2021/08/12 04:05:10;;;;;;;;;;;16.80;99.90;;;;;;4956490;28;19985;-83
2021/08/12 04:07:35;;;;;;;;;;;16.80;99.90;;;;;;4954807;28;19957;-82
2021/08/12 04:10:02;;;;;;;;;;;16.80;99.90;;;;;;4954218;28;19961;-83
2021/08/12 04:12:27;;;;;;;;;;;16.80;99.90;;;;;;4956246;28;19918;-83
2021/08/12 04:14:53;;;;;;;;;;;16.80;99.90;;;;;;4956567;28;19915;-83
2021/08/12 04:17:18;;;;;;;;;;;16.80;99.90;;;;;;4956219;28;19911;-83
2021/08/12 04:19:44;;;;;;;;;;;16.80;99.90;;;;;;4955602;28;19918;-82
2021/08/12 04:22:09;;;;;;;;;;;16.80;99.90;;;;;;4954626;28;20306;-83
2021/08/12 04:24:35;;;;;;;;;;;16.80;99.90;;;;;;4955722;28;19911;-83
2021/08/12 04:27:00;;;;;;;;;;;16.80;99.90;;;;;;4956273;28;19933;-83
2021/08/12 04:29:26;;;;;;;;;;;16.80;99.90;;;;;;4954246;28;19987;-83
2021/08/12 04:31:51;;;;;;;;;;;16.80;99.90;;;;;;4956193;28;20432;-83
2021/08/12 04:34:17;;;;;;;;;;;16.80;99.90;;;;;;4956079;28;19961;-83
2021/08/12 04:36:42;;;;;;;;;;;16.80;99.90;;;;;;4955148;28;19932;-83
2021/08/12 04:39:08;;;;;;;;;;;16.80;99.90;;;;;;4955306;28;19918;-83
2021/08/12 04:41:34;;;;;;;;;;;16.80;99.90;;;;;;4956755;28;19910;-82
2021/08/12 04:43:59;;;;;;;;;;;16.90;99.90;;;;;;4955294;28;20283;-83
2021/08/12 04:46:25;;;;;;;;;;;16.90;99.90;;;;;;4955954;28;19918;-83
2021/08/12 04:48:50;;;;;;;;;;;16.90;99.90;;;;;;4955767;28;19914;-83
2021/08/12 04:51:16;;;;;;;;;;;16.90;99.90;;;;;;4953540;28;20334;-82
2021/08/12 04:53:41;;;;;;;;;;;16.90;99.90;;;;;;4953935;28;19976;-83
2021/08/12 04:56:07;;;;;;;;;;;17.00;99.90;;;;;;4955934;28;19969;-83
2021/08/12 04:58:32;;;;;;;;;;;17.00;99.90;;;;;;4954002;28;20413;-83
2021/08/12 05:00:58;;;;;;;;;;;17.00;99.90;;;;;;4953440;28;19917;-83
2021/08/12 05:03:23;;;;;;;;;;;17.00;99.90;;;;;;4954581;28;19933;-83
2021/08/12 05:05:49;;;;;;;;;;;17.00;99.90;;;;;;4955486;28;20314;-83
2021/08/12 05:08:15;;;;;;;;;;;17.00;99.90;;;;;;4955360;28;19945;-82
2021/08/12 05:10:46;;;;;;;;;;;17.00;99.90;;;;;;4953544;28;19973;-83
2021/08/12 05:13:12;;;;;;;;;;;17.00;99.90;;;;;;4954056;28;19954;-82
2021/08/12 05:15:37;;;;;;;;;;;17.00;99.90;;;;;;4955352;28;19915;-82
2021/08/12 05:18:03;;;;;;;;;;;17.00;99.90;;;;;;4953817;28;19911;-83
2021/08/12 05:20:36;;;;;;;;;;;17.00;99.90;;;;;;4973573;23;19927;-89
2021/08/12 05:23:02;;;;;;;;;;;17.00;99.90;;;;;;4953154;28;19911;-89
2021/08/12 05:25:27;;;;;;;;;;;17.10;99.90;;;;;;4953299;28;19922;-89
2021/08/12 05:28:19;;;;;;;;;;;17.10;99.90;;;;;;4952009;28;19933;-90
2021/08/12 05:30:45;;;;;;;;;;;17.10;99.90;;;;;;4951822;28;19976;-89
2021/08/12 05:33:10;;;;;;;;;;;17.10;99.90;;;;;;4952188;28;19964;-89
2021/08/12 05:35:36;;;;;;;;;;;17.10;99.90;;;;;;4952965;28;20278;-89
2021/08/12 05:38:01;;;;;;;;;;;17.20;99.90;;;;;;4953089;28;19910;-89
2021/08/12 05:40:27;;;;;;;;;;;17.20;99.90;;;;;;4951304;28;20313;-89
2021/08/12 05:42:52;;;;;;;;;;;17.20;99.90;;;;;;4951587;28;19964;-89
2021/08/12 05:45:18;;;;;;;;;;;17.30;99.90;;;;;;4953300;28;19964;-90
2021/08/12 05:47:43;;;;;;;;;;;17.30;99.90;;;;;;4951829;28;20001;-90
2021/08/12 05:50:09;;;;;;;;;;;17.30;99.90;;;;;;4952932;28;19915;-90
2021/08/12 05:52:35;;;;;;;;;;;17.30;99.90;;;;;;4951658;28;19956;-90
2021/08/12 05:55:01;;;;;;;;;;;17.40;99.90;;;;;;4951564;28;19946;-89
2021/08/12 05:57:26;;;;;;;;;;;17.40;99.90;;;;;;4952778;28;19964;-89
2021/08/12 05:59:55;;;;;;;;;;;17.50;99.90;;;;;;4951204;28;19914;-90
2021/08/12 06:02:20;;;;;;;;;;;17.50;99.90;;;;;;4951422;28;19933;-90
2021/08/12 06:04:46;;;;;;;;;;;17.50;99.90;;;;;;4950358;28;19911;-89
2021/08/12 06:07:13;;;;;;;;;;;17.60;99.90;;;;;;4952547;28;19910;-89
2021/08/12 06:09:38;;;;;;;;;;;17.60;99.90;;;;;;4951445;28;20060;-89
2021/08/12 06:12:04;;;;;;;;;;;17.70;99.90;;;;;;4951289;28;19949;-90
2021/08/12 06:14:29;;;;;;;;;;;17.80;99.90;;;;;;4951152;28;19921;-89
2021/08/12 06:16:55;;;;;;;;;;;17.80;99.90;;;;;;4951206;28;19910;-90
2021/08/12 06:19:20;;;;;;;;;;;17.90;99.90;;;;;;4950602;28;19966;-89
2021/08/12 06:21:46;;;;;;;;;;;17.90;99.90;;;;;;4951206;28;20005;-89
2021/08/12 06:24:14;;;;;;;;;;;17.90;99.90;;;;;;4951246;28;19917;-89
2021/08/12 06:26:40;;;;;;;;;;;18.00;99.90;;;;;;4951200;28;19911;-89
2021/08/12 06:29:06;;;;;;;;;;;18.00;99.90;;;;;;4951984;28;19915;-89
2021/08/12 06:31:31;;;;;;;;;;;18.00;99.90;;;;;;4950802;28;19911;-89
2021/08/12 06:33:57;;;;;;;;;;;18.00;99.90;;;;;;4951167;28;19910;-89
2021/08/12 06:36:22;;;;;;;;;;;18.10;99.90;;;;;;4951028;28;19914;-89
2021/08/12 06:38:48;;;;;;;;;;;18.10;99.90;;;;;;4950648;28;19911;-89
2021/08/12 06:41:13;;;;;;;;;;;18.10;99.90;;;;;;4950649;28;19937;-90
2021/08/12 06:43:39;;;;;;;;;;;18.20;99.90;;;;;;4952077;28;20389;-89
2021/08/12 06:46:04;;;;;;;;;;;18.20;99.90;;;;;;4950742;28;20267;-89
2021/08/12 06:48:30;;;;;;;;;;;18.20;99.90;;;;;;4950674;28;19911;-89
2021/08/12 06:50:55;;;;;;;;;;;18.30;99.90;;;;;;4950465;28;20287;-89
2021/08/12 06:53:21;;;;;;;;;;;18.30;99.90;;;;;;4950821;28;19921;-89
2021/08/12 06:55:46;;;;;;;;;;;18.40;99.90;;;;;;4950634;28;19984;-89
2021/08/12 06:58:12;;;;;;;;;;;18.40;99.90;;;;;;4950679;28;19911;-89
2021/08/12 07:00:37;;;;;;;;;;;18.50;99.90;;;;;;4950376;28;19967;-89
2021/08/12 07:03:03;;;;;;;;;;;18.50;99.90;;;;;;4950716;28;19918;-89
2021/08/12 07:05:28;;;;;;;;;;;18.50;99.90;;;;;;4950744;28;19959;-89
2021/08/12 07:07:54;;;;;;;;;;;18.50;99.90;;;;;;4950557;28;20390;-89
2021/08/12 07:10:19;;;;;;;;;;;18.50;99.90;;;;;;4950192;28;20401;-89
2021/08/12 07:12:45;;;;;;;;;;;18.60;99.90;;;;;;4950422;28;20393;-89
2021/08/12 07:15:11;;;;;;;;;;;18.60;99.90;;;;;;4951632;28;19914;-89
2021/08/12 07:17:36;;;;;;;;;;;18.60;99.90;;;;;;4950145;28;20286;-89
2021/08/12 07:20:06;;;;;;;;;;;18.70;99.90;;;;;;4950164;28;19918;-89
2021/08/12 07:22:31;;;;;;;;;;;18.70;99.90;;;;;;4950449;28;19910;-91
2021/08/12 07:24:58;;;;;;;;;;;18.70;99.90;;;;;;4950674;28;19965;-89
2021/08/12 07:27:24;;;;;;;;;;;18.80;99.90;;;;;;4951542;28;19918;-90
2021/08/12 07:29:49;;;;;;;;;;;18.80;99.90;;;;;;4950439;28;19910;-90
2021/08/12 07:32:15;;;;;;;;;;;18.90;99.90;;;;;;4950315;28;19965;-89
2021/08/12 07:34:40;;;;;;;;;;;18.90;99.90;;;;;;4950221;28;19943;-89
2021/08/12 07:37:06;;;;;;;;;;;18.90;99.90;;;;;;4950445;28;20513;-89
2021/08/12 07:39:31;;;;;;;;;;;18.90;99.90;;;;;;4951728;28;20055;-90
2021/08/12 07:41:57;;;;;;;;;;;19.00;99.90;;;;;;4950347;28;19922;-90
2021/08/12 07:44:22;;;;;;;;;;;19.00;99.90;;;;;;4951471;28;20384;-90
2021/08/12 07:46:48;;;;;;;;;;;19.00;99.90;;;;;;4950318;28;19914;-89
2021/08/12 07:49:13;;;;;;;;;;;19.00;99.90;;;;;;4949847;28;19917;-89
2021/08/12 07:51:39;;;;;;;;;;;19.10;99.90;;;;;;4949947;28;20378;-91
2021/08/12 07:54:04;;;;;;;;;;;19.10;99.90;;;;;;4951256;28;19916;-90
2021/08/12 07:56:30;;;;;;;;;;;19.10;99.90;;;;;;4950129;28;19910;-91
2021/08/12 07:58:55;;;;;;;;;;;19.10;99.90;;;;;;4949947;28;19980;-90
2021/08/12 08:01:21;;;;;;;;;;;19.20;99.90;;;;;;4950121;28;20256;-89
2021/08/12 08:03:47;;;;;;;;;;;19.20;99.90;;;;;;4951280;28;19910;-89
2021/08/12 08:06:13;;;;;;;;;;;19.30;99.90;;;;;;4949777;28;19911;-89
2021/08/12 08:08:38;;;;;;;;;;;19.30;99.90;;;;;;4949737;29;19933;-89
2021/08/12 08:11:04;;;;;;;;;;;19.30;99.90;;;;;;4950910;28;19968;-89
2021/08/12 08:13:30;;;;;;;;;;;19.40;99.90;;;;;;4949818;28;20009;-90
2021/08/12 08:15:55;;;;;;;;;;;19.40;99.90;;;;;;4949760;28;20021;-89
2021/08/12 08:18:21;;;;;;;;;;;19.40;99.90;;;;;;4949749;28;19910;-89
2021/08/12 08:20:47;;;;;;;;;;;19.40;99.90;;;;;;4950552;28;19941;-89
2021/08/12 08:23:12;;;;;;;;;;;19.50;99.90;;;;;;4950917;28;20363;-90
2021/08/12 08:25:38;;;;;;;;;;;19.50;99.90;;;;;;4949724;28;19960;-91
2021/08/12 08:28:05;;;;;;;;;;;19.50;99.90;;;;;;4949926;29;19918;-89
2021/08/12 08:30:31;;;;;;;;;;;19.50;99.90;;;;;;4953745;28;19910;-90
2021/08/12 08:32:57;;;;;;;;;;;19.60;99.90;;;;;;4952827;29;19961;-89
2021/08/12 08:35:25;;;;;;;;;;;19.50;99.90;;;;;;4952794;28;19954;-89
2021/08/12 08:37:54;;;;;;;;;;;19.60;99.90;;;;;;4952844;29;19933;-89
2021/08/12 08:40:19;;;;;;;;;;;19.60;99.90;;;;;;4952369;29;19937;-89
2021/08/12 08:42:48;;;;;;;;;;;19.70;99.90;;;;;;4952680;28;19910;-89
2021/08/12 08:45:14;;;;;;;;;;;19.70;99.90;;;;;;4952695;28;19933;-89
2021/08/12 08:47:40;;;;;;;;;;;19.80;99.90;;;;;;4952565;28;19910;-89
2021/08/12 08:50:06;;;;;;;;;;;19.80;99.90;;;;;;4952414;29;20013;-89
2021/08/12 08:52:32;;;;;;;;;;;19.90;99.90;;;;;;4952621;29;19945;-88
2021/08/12 08:54:57;;;;;;;;;;;19.80;99.90;;;;;;4952637;28;20315;-89
2021/08/12 08:57:23;;;;;;;;;;;19.80;99.90;;;;;;4954318;28;19963;-89
2021/08/12 08:59:49;;;;;;;;;;;19.80;99.90;;;;;;4952515;28;19911;-90
2021/08/12 09:02:14;;;;;;;;;;;19.80;99.90;;;;;;4953470;28;19910;-89
2021/08/12 09:04:40;;;;;;;;;;;19.90;99.90;;;;;;4970693;28;19918;-90
2021/08/12 09:07:07;;;;;;;;;;;20.00;99.90;;;;;;4961963;28;19910;-89
2021/08/12 09:09:33;;;;;;;;;;;20.00;99.90;;;;;;4954413;29;19911;-89
2021/08/12 09:12:00;;;;;;;;;;;20.10;99.90;;;;;;4957460;28;19917;-89
2021/08/12 09:14:28;;;;;;;;;;;20.10;99.90;;;;;;4958248;29;19942;-89
2021/08/12 09:16:54;;;;;;;;;;;20.10;99.90;;;;;;4952276;28;19968;-89
2021/08/12 09:19:20;;;;;;;;;;;20.20;99.90;;;;;;4951962;28;19950;-90
2021/08/12 09:21:53;;;;;;;;;;;20.30;99.90;;;;;;4952808;28;19910;-89
2021/08/12 09:24:19;;;;;;;;;;;20.30;99.90;;;;;;4952595;28;19919;-89
2021/08/12 09:26:45;;;;;;;;;;;20.30;99.90;;;;;;4953950;28;19955;-89
2021/08/12 09:29:11;;;;;;;;;;;20.30;99.90;;;;;;4951838;28;19918;-89
2021/08/12 09:31:57;;;;;;;;;;;20.30;99.90;;;;;;4951646;28;19918;-89
2021/08/12 09:34:22;;;;;;;;;;;20.40;99.90;;;;;;4952702;28;19949;-89
2021/08/12 09:37:01;;;;;;;;;;;20.40;99.90;;;;;;4951872;29;20011;-90
2021/08/12 09:39:27;;;;;;;;;;;20.50;99.90;;;;;;4951418;28;19911;-89
2021/08/12 09:41:54;;;;;;;;;;;20.50;99.90;;;;;;4951762;28;20283;-89
2021/08/12 09:44:32;;;;;;;;;;;20.50;99.90;;;;;;4951854;28;19917;-89
2021/08/12 09:46:58;;;;;;;;;;;20.50;99.90;;;;;;4951571;28;19918;-90
2021/08/12 09:49:23;;;;;;;;;;;20.50;99.90;;;;;;4952597;28;20330;-89
2021/08/12 09:51:49;;;;;;;;;;;20.60;99.10;;;;;;4951790;29;19910;-89
2021/08/12 09:54:14;;;;;;;;;;;20.70;97.90;;;;;;4951469;28;20397;-89
2021/08/12 09:56:40;;;;;;;;;;;20.80;97.50;;;;;;4951763;28;20438;-89
2021/08/12 09:59:06;;;;;;;;;;;20.80;97.30;;;;;;4951293;28;19990;-89
2021/08/12 10:01:32;;;;;;;;;;;20.90;96.60;;;;;;4951435;28;20449;-90
2021/08/12 10:03:57;;;;;;;;;;;21.00;96.00;;;;;;4951474;28;19915;-89
2021/08/12 10:06:25;;;;;;;;;;;21.10;96.10;;;;;;4952582;28;20385;-89
2021/08/12 10:08:50;;;;;;;;;;;21.10;96.00;;;;;;4952426;28;19952;-90
2021/08/12 10:11:20;;;;;;;;;;;21.20;96.40;;;;;;4951237;29;19942;-89
2021/08/12 10:13:47;;;;;;;;;;;21.30;95.90;;;;;;4951287;28;20331;-89
2021/08/12 10:16:14;;;;;;;;;;;21.30;95.60;;;;;;4952407;28;20048;-89
2021/08/12 10:18:40;;;;;;;;;;;21.30;95.30;;;;;;4950907;28;20386;-89
2021/08/12 10:21:06;;;;;;;;;;;21.40;95.50;;;;;;4950749;28;19914;-89
2021/08/12 10:23:32;;;;;;;;;;;21.40;95.70;;;;;;4951182;28;20283;-89
2021/08/12 10:25:58;;;;;;;;;;;21.40;95.60;;;;;;4951126;29;19991;-88
2021/08/12 10:28:24;;;;;;;;;;;21.50;95.40;;;;;;4951055;28;20367;-89
2021/08/12 10:30:51;;;;;;;;;;;21.40;94.80;;;;;;4950701;28;20275;-89
2021/08/12 10:33:17;;;;;;;;;;;21.40;93.40;;;;;;4950962;28;20306;-89
2021/08/12 10:35:43;;;;;;;;;;;21.40;93.70;;;;;;4951051;28;19930;-89
2021/08/12 10:38:09;;;;;;;;;;;21.50;93.00;;;;;;4951126;28;20262;-89
2021/08/12 10:40:36;;;;;;;;;;;21.40;93.50;;;;;;4950510;28;19910;-89
2021/08/12 10:43:02;;;;;;;;;;;21.40;94.80;;;;;;4950971;29;19918;-89
2021/08/12 10:45:28;;;;;;;;;;;21.50;94.90;;;;;;4950724;28;19910;-89
2021/08/12 10:47:54;;;;;;;;;;;21.50;93.60;;;;;;4951965;28;19911;-90
2021/08/12 10:50:23;;;;;;;;;;;21.50;94.00;;;;;;4950684;28;19933;-89
2021/08/12 10:53:04;;;;;;;;;;;21.50;94.60;;;;;;4950370;28;19960;-89
2021/08/12 10:55:30;;;;;;;;;;;21.50;95.10;;;;;;4952164;28;19914;-89
2021/08/12 10:58:22;;;;;;;;;;;21.50;95.00;;;;;;4950545;28;19958;-89
2021/08/12 11:00:49;;;;;;;;;;;21.50;94.50;;;;;;4943937;28;19968;-89
2021/08/12 11:09:45;;;;;;;;;;;21.40;93.90;;;;;;4951462;28;19917;-89
2021/08/12 11:21:25;;;;;;;;;;;21.50;94.00;;;;;;4978330;23;19981;-82
2021/08/12 11:23:50;;;;;;;;;;;21.60;93.40;;;;;;4956539;28;20412;-82
2021/08/12 11:26:16;;;;;;;;;;;21.70;92.70;;;;;;4955599;28;19914;-82
2021/08/12 11:28:41;;;;;;;;;;;21.60;92.20;;;;;;4954036;28;19910;-82
2021/08/12 11:31:19;;;;;;;;;;;21.70;92.10;;;;;;4951941;28;19933;-82
2021/08/12 11:33:46;;;;;;;;;;;21.80;92.40;;;;;;4953980;28;19910;-81
2021/08/12 11:36:19;;;;;;;;;;;21.70;93.20;;;;;;4952487;28;20383;-82
2021/08/12 11:38:49;;;;;;;;;;;21.70;93.30;;;;;;4954347;28;20001;-82
2021/08/12 11:41:16;;;;;;;;;;;21.70;93.50;;;;;;4952119;29;19952;-82
2021/08/12 11:43:41;;;;;;;;;;;21.70;94.20;;;;;;4952674;29;19911;-82
2021/08/12 11:46:08;;;;;;;;;;;21.60;94.60;;;;;;4952681;29;20263;-82
2021/08/12 11:48:34;;;;;;;;;;;21.60;94.80;;;;;;4952457;28;20013;-82
2021/08/12 11:51:00;;;;;;;;;;;21.50;94.30;;;;;;4953248;28;20391;-82
2021/08/12 11:53:35;;;;;;;;;;;21.50;94.50;;;;;;4953732;28;20049;-82
2021/08/12 11:56:07;;;;;;;;;;;21.50;94.20;;;;;;4952566;28;19960;-82
2021/08/12 11:58:32;;;;;;;;;;;21.50;94.40;;;;;;4954440;28;19917;-82
2021/08/12 12:01:08;;;;;;;;;;;21.50;94.40;;;;;;4952989;28;19911;-82
2021/08/12 12:03:34;;;;;;;;;;;21.50;93.50;;;;;;4954314;28;19920;-82
2021/08/12 12:06:00;;;;;;;;;;;21.50;93.40;;;;;;4956598;29;19910;-82
2021/08/12 12:08:29;;;;;;;;;;;21.50;93.40;;;;;;4956720;28;19922;-82
2021/08/12 12:11:05;;;;;;;;;;;21.50;93.20;;;;;;4957121;28;19915;-82
2021/08/12 12:13:30;;;;;;;;;;;21.50;93.40;;;;;;4955686;28;20009;-82
2021/08/12 12:15:56;;;;;;;;;;;21.50;93.00;;;;;;4956204;28;19949;-82
2021/08/12 12:18:32;;;;;;;;;;;21.60;92.50;;;;;;4956022;28;19917;-82
2021/08/12 12:21:04;;;;;;;;;;;21.60;92.70;;;;;;4955607;28;19926;-82
2021/08/12 12:23:29;;;;;;;;;;;21.60;92.60;;;;;;4955740;28;20374;-82
2021/08/12 12:25:55;;;;;;;;;;;21.60;92.70;;;;;;4955916;28;19911;-81
2021/08/12 12:28:21;;;;;;;;;;;21.60;92.70;;;;;;4958020;28;19915;-82
2021/08/12 12:30:46;;;;;;;;;;;21.60;93.00;;;;;;4955920;28;19933;-82
2021/08/12 12:33:14;;;;;;;;;;;21.60;92.70;;;;;;4957898;28;20013;-82
2021/08/12 12:35:43;;;;;;;;;;;21.60;92.80;;;;;;4955639;29;19977;-82
2021/08/12 12:38:10;;;;;;;;;;;21.60;92.70;;;;;;4955266;28;19915;-82
2021/08/12 12:40:37;;;;;;;;;;;21.60;93.00;;;;;;4954253;29;20001;-82
2021/08/12 12:43:03;;;;;;;;;;;21.60;92.90;;;;;;4958826;28;19911;-82
2021/08/12 12:45:28;;;;;;;;;;;21.60;93.20;;;;;;4958062;28;19964;-84
2021/08/12 12:48:04;;;;;;;;;;;21.60;92.80;;;;;;4956233;28;20325;-81
2021/08/12 12:50:39;;;;;;;;;;;21.60;92.70;;;;;;4954838;28;19914;-84
2021/08/12 12:53:05;;;;;;;;;;;21.60;92.60;;;;;;4955347;28;19942;-81
2021/08/12 12:55:34;;;;;;;;;;;21.50;92.70;;;;;;4955976;28;19914;-81
2021/08/12 12:58:12;;;;;;;;;;;21.60;92.00;;;;;;4955959;28;20001;-81
2021/08/12 13:00:39;;;;;;;;;;;21.60;92.20;;;;;;4955402;29;20330;-81
2021/08/12 13:03:04;;;;;;;;;;;21.60;92.60;;;;;;4954618;28;19923;-81
2021/08/12 13:05:46;;;;;;;;;;;21.60;92.70;;;;;;4954910;29;20437;-81
2021/08/12 13:08:12;;;;;;;;;;;21.70;91.40;;;;;;4954862;28;20005;-81
2021/08/12 13:10:37;;;;;;;;;;;21.80;91.20;;;;;;4953665;28;20338;-81
2021/08/12 13:13:03;;;;;;;;;;;21.90;90.80;;;;;;4954467;28;20122;-81
2021/08/12 13:15:29;;;;;;;;;;;22.10;90.20;;;;;;4954401;28;20337;-81
2021/08/12 13:17:55;;;;;;;;;;;22.20;90.40;;;;;;4954692;28;19911;-81
2021/08/12 13:20:20;;;;;;;;;;;22.30;90.70;;;;;;4953580;28;19918;-81
2021/08/12 13:22:48;;;;;;;;;;;22.40;90.10;;;;;;4956136;28;20185;-82
2021/08/12 13:25:20;;;;;;;;;;;22.40;90.70;;;;;;4955066;28;19921;-82
2021/08/12 13:27:53;;;;;;;;;;;22.30;91.00;;;;;;4956058;28;20336;-81
2021/08/12 13:30:28;;;;;;;;;;;22.30;91.50;;;;;;4954471;28;19915;-81
2021/08/12 13:32:54;;;;;;;;;;;22.30;91.00;;;;;;4953763;28;20005;-81
2021/08/12 13:35:19;;;;;;;;;;;22.30;90.50;;;;;;4954570;28;20264;-82
2021/08/12 13:37:45;;;;;;;;;;;22.40;89.00;;;;;;4954337;28;19911;-81
2021/08/12 13:40:11;;;;;;;;;;;22.50;90.40;;;;;;4954095;28;20382;-81
2021/08/12 13:42:36;;;;;;;;;;;22.50;88.20;;;;;;4955198;28;20015;-81
2021/08/12 13:45:02;;;;;;;;;;;22.70;87.30;;;;;;4954870;28;19923;-81
2021/08/12 13:47:27;;;;;;;;;;;22.70;87.70;;;;;;4954965;28;19910;-82
2021/08/12 13:49:53;;;;;;;;;;;22.70;88.40;;;;;;4953514;28;19914;-81
2021/08/12 13:52:18;;;;;;;;;;;22.60;89.30;;;;;;4954293;28;19910;-81
2021/08/12 13:54:46;;;;;;;;;;;22.70;89.20;;;;;;4954701;28;19914;-81
2021/08/12 13:57:12;;;;;;;;;;;22.80;89.80;;;;;;4955700;28;19911;-81
2021/08/12 13:59:37;;;;;;;;;;;22.80;90.20;;;;;;4955024;28;20339;-82
2021/08/12 14:02:03;;;;;;;;;;;22.70;90.70;;;;;;4955477;28;20005;-81
2021/08/12 14:04:29;;;;;;;;;;;22.70;90.80;;;;;;4954326;28;19911;-82
2021/08/12 14:06:55;;;;;;;;;;;22.70;91.30;;;;;;4953972;28;19911;-81
2021/08/12 14:09:21;;;;;;;;;;;22.70;91.30;;;;;;4952850;28;20376;-81
2021/08/12 14:11:47;;;;;;;;;;;22.70;91.50;;;;;;4954791;28;19933;-82
2021/08/12 14:14:13;;;;;;;;;;;22.70;91.50;;;;;;4954183;28;19910;-81
2021/08/12 14:16:39;;;;;;;;;;;22.70;91.60;;;;;;4955220;28;19915;-81
2021/08/12 14:19:05;;;;;;;;;;;22.80;91.70;;;;;;4955627;28;19930;-82
2021/08/12 14:21:30;;;;;;;;;;;22.80;91.60;;;;;;4956261;28;19911;-81
2021/08/12 14:23:56;;;;;;;;;;;22.80;91.50;;;;;;4954731;28;19942;-81
2021/08/12 14:26:21;;;;;;;;;;;23.00;91.30;;;;;;4954269;28;20217;-81
2021/08/12 14:28:47;;;;;;;;;;;23.20;91.10;;;;;;4954091;28;19917;-81